createdAt,value
2023-05-15T00:01:28.305Z,151629.44
2023-05-15T00:03:56.359Z,151687.78
2023-05-15T00:06:24.550Z,151676.13
2023-05-15T00:08:54.207Z,151616.47
2023-05-15T00:11:23.619Z,151617.75
2023-05-15T00:13:52.341Z,151602.22
2023-05-15T00:16:20.700Z,151646.28
2023-05-15T00:18:48.652Z,151630.72
2023-05-15T00:21:17.163Z,151617.75
2023-05-15T00:23:45.216Z,151590.53
2023-05-15T00:26:15.804Z,151608.69
2023-05-15T00:28:44.125Z,151628.13
2023-05-15T00:31:13.200Z,151616.47
2023-05-15T00:33:41.336Z,151621.66
2023-05-15T00:36:10.308Z,151565.94
2023-05-15T00:38:40.042Z,151586.66
2023-05-15T00:41:11.983Z,151568.53
2023-05-15T00:43:42.453Z,151599.63
2023-05-15T00:46:11.504Z,151556.88
2023-05-15T00:48:40.626Z,151603.50
2023-05-15T00:51:08.774Z,151621.66
2023-05-15T00:53:38.552Z,151621.66
2023-05-15T00:56:08.131Z,151580.16
2023-05-15T00:58:38.897Z,151554.28
2023-05-15T01:01:09.746Z,151600.91
2023-05-15T01:03:38.115Z,151569.84
2023-05-15T01:06:06.835Z,151578.88
2023-05-15T01:08:43.627Z,151575.03
2023-05-15T01:11:13.880Z,151594.44
2023-05-15T01:13:42.714Z,151599.63
2023-05-15T01:16:12.476Z,151550.41
2023-05-15T01:18:41.012Z,151568.53
2023-05-15T01:21:42.032Z,151585.34
2023-05-15T01:24:27.046Z,151560.75
2023-05-15T01:27:16.468Z,151573.72
2023-05-15T01:29:51.156Z,151568.53
2023-05-15T01:32:21.996Z,151580.16
2023-05-15T01:34:59.103Z,151565.94
2023-05-15T01:37:30.211Z,151560.75
2023-05-15T01:40:04.728Z,151545.22
2023-05-15T01:42:35.928Z,151542.63
2023-05-15T01:45:07.054Z,151546.50
2023-05-15T01:47:42.021Z,151562.06
2023-05-15T01:50:14.541Z,151529.66
2023-05-15T01:52:46.002Z,151546.50
2023-05-15T01:55:16.252Z,151519.34
2023-05-15T01:57:48.845Z,151545.22
2023-05-15T02:00:18.608Z,151551.69
2023-05-15T02:02:47.674Z,151560.75
2023-05-15T02:05:16.031Z,151533.53
2023-05-15T02:07:46.446Z,151568.53
2023-05-15T02:10:17.839Z,151584.06
2023-05-15T02:12:49.559Z,151568.53
2023-05-15T02:15:18.695Z,151546.50
2023-05-15T02:17:47.036Z,151519.34
2023-05-15T02:20:17.930Z,151565.94
2023-05-15T02:22:46.116Z,151527.06
2023-05-15T02:25:14.086Z,151555.59
2023-05-15T02:27:53.006Z,151553.00
2023-05-15T02:30:36.294Z,151506.38
2023-05-15T02:33:14.214Z,151521.94
2023-05-15T02:35:52.270Z,151510.25
2023-05-15T02:38:27.376Z,151492.13
2023-05-15T02:40:57.754Z,151529.66
2023-05-15T02:43:30.912Z,151521.94
2023-05-15T02:46:00.647Z,151524.47
2023-05-15T02:48:30.878Z,151490.81
2023-05-15T02:50:59.415Z,151459.78
2023-05-15T02:53:34.732Z,151511.56
2023-05-15T02:56:04.990Z,151476.56
2023-05-15T02:58:51.615Z,151483.03
2023-05-15T03:01:19.677Z,151473.97
2023-05-15T03:03:54.876Z,151471.38
2023-05-15T03:06:31.805Z,151547.81
2023-05-15T03:09:09.548Z,151480.44
2023-05-15T03:11:38.259Z,151485.63
2023-05-15T03:14:09.048Z,151521.94
2023-05-15T03:16:38.926Z,151516.75
2023-05-15T03:19:07.322Z,151485.63
2023-05-15T03:21:36.802Z,151481.75
2023-05-15T03:24:05.058Z,151431.25
2023-05-15T03:26:33.102Z,151439.03
2023-05-15T03:29:02.203Z,151418.31
2023-05-15T03:31:31.765Z,151423.47
2023-05-15T03:34:00.030Z,151432.56
2023-05-15T03:36:28.224Z,151389.84
2023-05-15T03:38:58.473Z,151358.75
2023-05-15T03:41:27.940Z,151345.84
2023-05-15T03:43:56.085Z,151383.38
2023-05-15T03:46:24.128Z,151400.22
2023-05-15T03:48:54.609Z,151397.63
2023-05-15T03:51:23.811Z,151369.13
2023-05-15T03:53:51.988Z,151366.53
2023-05-15T03:56:20.051Z,151374.28
2023-05-15T03:58:48.429Z,151371.72
2023-05-15T04:01:16.408Z,151401.50
2023-05-15T04:03:44.742Z,151316.06
2023-05-15T04:06:14.286Z,151294.09
2023-05-15T04:08:42.245Z,151352.31
2023-05-15T04:11:12.385Z,151317.34
2023-05-15T04:13:40.495Z,151310.88
2023-05-15T04:16:10.006Z,151325.13
2023-05-15T04:18:38.270Z,151316.06
2023-05-15T04:21:06.557Z,151338.06
2023-05-15T04:23:35.896Z,151318.63
2023-05-15T04:26:05.209Z,151348.44
2023-05-15T04:28:33.616Z,151291.50
2023-05-15T04:31:02.120Z,151339.38
2023-05-15T04:33:30.338Z,151362.63
2023-05-15T04:35:58.649Z,151361.34
2023-05-15T04:38:27.455Z,151371.72
2023-05-15T04:40:57.020Z,151334.19
2023-05-15T04:43:25.433Z,151356.22
2023-05-15T04:45:54.900Z,151371.72
2023-05-15T04:48:23.178Z,151396.31
2023-05-15T04:50:52.578Z,151436.44
2023-05-15T04:53:20.714Z,151444.22
2023-05-15T04:55:51.380Z,151422.19
2023-05-15T04:58:21.006Z,151419.59
2023-05-15T05:00:49.144Z,151446.81
2023-05-15T05:03:17.269Z,151449.41
2023-05-15T05:05:45.683Z,151503.78
2023-05-15T05:08:13.856Z,151480.44
2023-05-15T05:10:42.897Z,151515.44
2023-05-15T05:13:13.169Z,151580.16
2023-05-15T05:15:42.927Z,151587.94
2023-05-15T05:18:11.318Z,151620.34
2023-05-15T05:20:39.309Z,151638.50
2023-05-15T05:23:07.569Z,151680.00
2023-05-15T05:25:35.690Z,151638.50
2023-05-15T05:28:03.773Z,151633.31
2023-05-15T05:30:31.704Z,151664.44
2023-05-15T05:33:01.334Z,151713.69
2023-05-15T05:35:29.422Z,151729.25
2023-05-15T05:37:57.526Z,151791.47
2023-05-15T05:40:26.044Z,151822.53
2023-05-15T05:42:54.609Z,151862.72
2023-05-15T05:45:24.051Z,151853.69
2023-05-15T05:47:52.273Z,151865.31
2023-05-15T05:50:24.377Z,151856.22
2023-05-15T05:52:52.377Z,151848.50
2023-05-15T05:55:20.556Z,151823.84
2023-05-15T05:57:48.745Z,151879.59
2023-05-15T06:00:17.689Z,151936.63
2023-05-15T06:02:45.651Z,152001.50
2023-05-15T06:05:14.699Z,152093.63
2023-05-15T06:07:45.058Z,152080.66
2023-05-15T06:10:13.911Z,152202.63
2023-05-15T06:12:42.331Z,152297.44
2023-05-15T06:15:11.357Z,152307.78
2023-05-15T06:17:39.543Z,152298.66
2023-05-15T06:20:10.891Z,152188.34
2023-05-15T06:22:40.760Z,152197.44
2023-05-15T06:25:14.721Z,152240.31
2023-05-15T06:27:42.888Z,152194.84
2023-05-15T06:30:12.248Z,152119.59
2023-05-15T06:32:41.497Z,152109.22
2023-05-15T06:35:10.838Z,152123.50
2023-05-15T06:37:40.034Z,152216.91
2023-05-15T06:40:11.506Z,152255.84
2023-05-15T06:42:39.960Z,152196.13
2023-05-15T06:45:09.329Z,152287.03
2023-05-15T06:47:37.292Z,152385.69
2023-05-15T06:50:06.565Z,152377.91
2023-05-15T06:52:35.004Z,152453.28
2023-05-15T06:55:03.040Z,152413.00
2023-05-15T06:57:34.482Z,152544.19
2023-05-15T07:00:05.895Z,152616.97
2023-05-15T07:02:37.055Z,152549.41
2023-05-15T07:05:05.477Z,152692.31
2023-05-15T07:07:38.593Z,153055.31
2023-05-15T07:10:07.908Z,153302.66
2023-05-15T07:12:37.888Z,153423.78
2023-05-15T07:15:06.955Z,153401.66
2023-05-15T07:17:35.328Z,153345.66
2023-05-15T07:20:06.159Z,153535.81
2023-05-15T07:22:38.788Z,153563.25
2023-05-15T07:25:14.593Z,153606.25
2023-05-15T07:27:45.853Z,153684.50
2023-05-15T07:30:14.861Z,153421.16
2023-05-15T07:32:42.990Z,153333.81
2023-05-15T07:35:12.599Z,153181.44
2023-05-15T07:37:41.017Z,152924.97
2023-05-15T07:40:09.996Z,152635.81
2023-05-15T07:42:39.758Z,152730.44
2023-05-15T07:45:10.770Z,151739.78
2023-05-15T07:47:45.923Z,148804.72
2023-05-15T07:50:17.112Z,149846.69
2023-05-15T07:52:45.733Z,146961.06
2023-05-15T07:55:14.776Z,140499.03
2023-05-15T07:57:43.629Z,137336.13
2023-05-15T08:00:23.445Z,132178.63
2023-05-15T08:02:53.792Z,105851.84
2023-05-15T08:05:22.008Z,-20294.22
2023-05-15T08:07:52.975Z,-20281.28
2023-05-15T08:10:50.041Z,-20268.47
2023-05-15T08:13:50.471Z,-20295.75
2023-05-15T08:16:42.863Z,-20319.41
2023-05-15T08:20:10.993Z,-20344.25
2023-05-15T08:23:58.691Z,-20300.78
2023-05-15T08:26:27.125Z,-20350.50
2023-05-15T08:28:56.437Z,-20332.47
2023-05-15T08:31:24.741Z,-20326.63
2023-05-15T08:33:54.597Z,-20340.38
2023-05-15T08:36:22.744Z,-20361.47
2023-05-15T08:38:50.982Z,-20333.56
2023-05-15T08:41:40.844Z,-20376.03
2023-05-15T08:44:12.972Z,-20366.03
2023-05-15T08:46:43.032Z,-20323.84
2023-05-15T08:49:24.999Z,-20365.91
2023-05-15T08:52:05.089Z,-20375.34
2023-05-15T08:54:33.744Z,-20364.94
2023-05-15T08:57:03.772Z,-20356.88
2023-05-15T08:59:31.883Z,-20340.94
2023-05-15T09:02:00.993Z,-20354.13
2023-05-15T09:04:30.348Z,-20359.13
2023-05-15T09:07:01.717Z,-20366.75
2023-05-15T09:09:32.295Z,-20384.34
2023-05-15T09:12:03.272Z,-20384.34
2023-05-15T09:14:31.874Z,-20396.41
2023-05-15T09:17:00.861Z,-20399.31
2023-05-15T09:19:30.788Z,-20395.72
2023-05-15T09:22:17.725Z,-20383.66
2023-05-15T09:24:48.603Z,-20410.66
2023-05-15T09:27:17.700Z,-20405.13
2023-05-15T09:29:45.937Z,-20380.47
2023-05-15T09:32:15.686Z,-20379.34
2023-05-15T09:34:46.359Z,-20406.66
2023-05-15T09:37:29.369Z,-20377.13
2023-05-15T09:39:57.617Z,-20368.00
2023-05-15T09:42:26.246Z,-20398.88
2023-05-15T09:44:54.560Z,-20402.91
2023-05-15T09:47:22.665Z,-20404.84
2023-05-15T09:49:53.747Z,-20439.97
2023-05-15T09:52:23.308Z,-20416.47
2023-05-15T09:54:51.887Z,-20440.53
2023-05-15T09:57:24.417Z,-20384.91
2023-05-15T09:59:58.288Z,-20422.56
2023-05-15T10:02:32.177Z,-20407.34
2023-05-15T10:05:02.908Z,-20416.47
2023-05-15T10:07:32.030Z,-20422.56
2023-05-15T10:10:01.203Z,-20440.53
2023-05-15T10:12:32.173Z,-20465.81
2023-05-15T10:15:01.285Z,-20402.34
2023-05-15T10:17:30.300Z,-20421.47
2023-05-15T10:20:07.054Z,-20396.41
2023-05-15T10:22:41.437Z,-20428.38
2023-05-15T10:25:14.720Z,-20092.88
2023-05-15T10:27:43.712Z,-20415.50
2023-05-15T10:30:13.946Z,-20075.50
2023-05-15T10:32:43.613Z,-20358.84
2023-05-15T10:35:14.731Z,-20397.38
2023-05-15T10:37:43.243Z,-20425.47
2023-05-15T10:40:12.647Z,-20391.84
2023-05-15T10:42:44.688Z,-20379.63
2023-05-15T10:45:13.681Z,-20401.66
2023-05-15T10:47:44.226Z,-14743.47
2023-05-15T10:50:14.899Z,-19391.81
2023-05-15T10:52:43.784Z,-5728.50
2023-05-15T10:55:17.649Z,7347.47
2023-05-15T10:57:47.134Z,968.66
2023-05-15T11:00:31.464Z,5670.78
2023-05-15T11:03:03.773Z,-9393.50
2023-05-15T11:06:09.654Z,-3719.72
2023-05-15T11:08:38.955Z,4999.63
2023-05-15T11:11:08.350Z,1306.41
2023-05-15T11:14:13.874Z,12756.41
2023-05-15T11:17:07.827Z,32382.81
2023-05-15T11:19:55.689Z,47406.38
2023-05-15T11:22:32.206Z,7345.59
2023-05-15T11:25:03.536Z,8353.97
2023-05-15T11:27:33.171Z,-3385.03
2023-05-15T11:30:16.386Z,18798.47
2023-05-15T11:32:58.987Z,8372.47
2023-05-15T11:35:30.223Z,18125.41
2023-05-15T11:38:02.992Z,-5056.00
2023-05-15T11:40:38.182Z,3987.13
2023-05-15T11:43:09.503Z,22213.03
2023-05-15T11:45:39.834Z,37900.41
2023-05-15T11:48:09.999Z,12717.66
2023-05-15T11:50:40.022Z,32038.69
2023-05-15T11:53:11.890Z,22849.81
2023-05-15T11:55:46.909Z,13743.84
2023-05-15T11:58:17.890Z,14088.06
2023-05-15T12:00:49.513Z,18809.56
2023-05-15T12:03:19.276Z,8005.53
2023-05-15T12:05:58.143Z,2304.81
2023-05-15T12:08:34.325Z,-2383.47
2023-05-15T12:11:03.326Z,-10380.41
2023-05-15T12:13:32.723Z,1294.53
2023-05-15T12:16:01.994Z,4313.16
2023-05-15T12:18:30.971Z,11375.84
2023-05-15T12:21:00.148Z,16068.69
2023-05-15T12:23:31.191Z,15393.69
2023-05-15T12:26:02.280Z,3638.78
2023-05-15T12:28:31.302Z,21818.97
2023-05-15T12:31:00.122Z,21794.91
2023-05-15T12:33:28.573Z,13720.78
2023-05-15T12:36:01.153Z,-709.13
2023-05-15T12:38:31.136Z,630.97
2023-05-15T12:40:59.332Z,6651.03
2023-05-15T12:43:27.928Z,12364.13
2023-05-15T12:45:57.278Z,16025.91
2023-05-15T12:48:31.038Z,20060.38
2023-05-15T12:51:06.481Z,18059.66
2023-05-15T12:53:38.624Z,16716.09
2023-05-15T12:56:07.163Z,11673.75
2023-05-15T12:58:35.708Z,16370.34
2023-05-15T13:01:04.858Z,20738.72
2023-05-15T13:03:33.856Z,71128.16
2023-05-15T13:06:07.496Z,89131.28
2023-05-15T13:08:41.482Z,84483.16
2023-05-15T13:11:14.523Z,54329.53
2023-05-15T13:13:47.705Z,16366.66
2023-05-15T13:16:25.331Z,25162.88
2023-05-15T13:18:53.989Z,36966.41
2023-05-15T13:21:21.924Z,39364.25
2023-05-15T13:24:09.903Z,34238.09
2023-05-15T13:26:48.202Z,26483.81
2023-05-15T13:29:26.213Z,35296.97
2023-05-15T13:32:02.945Z,70155.56
2023-05-15T13:34:43.516Z,62548.63
2023-05-15T13:37:12.516Z,27837.66
2023-05-15T13:39:52.866Z,15030.66
2023-05-15T13:42:21.160Z,26141.91
2023-05-15T13:44:53.108Z,9317.38
2023-05-15T13:47:27.770Z,12654.00
2023-05-15T13:49:58.308Z,-50.41
2023-05-15T13:52:26.671Z,-5714.47
2023-05-15T13:54:56.744Z,279.72
2023-05-15T13:57:24.765Z,1279.03
2023-05-15T13:59:52.612Z,-5378.75
2023-05-15T14:02:21.171Z,5278.78
2023-05-15T14:04:49.161Z,-3051.53
2023-05-15T14:07:17.175Z,-10019.37
2023-05-15T14:09:46.332Z,-7370.88
2023-05-15T14:12:15.712Z,-9025.81
2023-05-15T14:14:50.530Z,-8362.72
2023-05-15T14:17:28.237Z,-17295.19
2023-05-15T14:20:13.632Z,-17287.81
2023-05-15T14:22:47.342Z,-17292.44
2023-05-15T14:25:18.396Z,-20277.53
2023-05-15T14:27:51.696Z,-20277.41
2023-05-15T14:30:45.052Z,-20271.41
2023-05-15T14:33:14.264Z,-20277.66
2023-05-15T14:35:59.333Z,-20290.75
2023-05-15T14:39:24.384Z,-20282.41
2023-05-15T14:41:59.568Z,-20257.34
2023-05-15T14:44:40.595Z,-20279.91
2023-05-15T14:47:17.755Z,-20273.78
2023-05-15T15:01:09.258Z,-20306.88
2023-05-15T15:04:02.227Z,-20268.91
2023-05-15T15:07:33.214Z,-20270.84
2023-05-15T15:19:40.501Z,-20254.97
2023-05-15T15:22:47.619Z,-20269.59
2023-05-15T15:31:41.847Z,-20241.16
2023-05-15T15:38:26.444Z,-20234.47
2023-05-15T15:40:55.398Z,-20234.19
2023-05-15T15:43:28.105Z,-20228.63
2023-05-15T15:45:58.894Z,-20212.72
2023-05-15T15:48:26.958Z,-20212.28
2023-05-15T15:50:55.305Z,-20210.75
2023-05-15T15:53:35.370Z,-20218.44
2023-05-15T15:56:12.674Z,-20204.06
2023-05-15T15:58:41.018Z,-20214.09
2023-05-15T16:01:12.314Z,-20204.91
2023-05-15T16:03:40.347Z,-20209.22
2023-05-15T16:06:08.776Z,-20210.63
2023-05-15T16:08:37.281Z,-20215.78
2023-05-15T16:11:06.681Z,-20211.31
2023-05-15T16:13:35.020Z,-20216.06
2023-05-15T16:16:05.485Z,-20201.00
2023-05-15T16:18:37.780Z,-20201.97
2023-05-15T16:21:06.242Z,-20206.28
2023-05-15T16:23:35.028Z,-20196.81
2023-05-15T16:26:05.697Z,-20196.94
2023-05-15T16:28:35.809Z,-20195.13
2023-05-15T16:31:14.747Z,-20188.69
2023-05-15T16:33:43.844Z,-20184.66
2023-05-15T16:36:11.827Z,-20183.13
2023-05-15T16:38:40.124Z,-20190.09
2023-05-15T16:41:10.605Z,-20181.44
2023-05-15T16:43:40.014Z,-20173.88
2023-05-15T16:46:08.375Z,-8612.50
2023-05-15T16:48:38.960Z,57409.00
2023-05-15T16:51:07.186Z,108357.28
2023-05-15T16:53:36.484Z,129895.56
2023-05-15T16:56:04.721Z,132994.44
2023-05-15T16:58:34.275Z,134998.38
2023-05-15T17:01:10.470Z,139113.72
2023-05-15T17:03:39.711Z,140529.16
2023-05-15T17:06:14.487Z,142542.34
2023-05-15T17:08:46.652Z,145245.09
2023-05-15T17:11:15.077Z,149027.44
2023-05-15T17:13:43.304Z,150057.91
2023-05-15T17:16:15.447Z,151057.63
2023-05-15T17:18:46.724Z,151760.28
2023-05-15T17:21:14.867Z,152053.31
2023-05-15T17:23:43.149Z,152044.34
2023-05-15T17:26:11.410Z,152005.38
2023-05-15T17:28:39.850Z,151992.41
2023-05-15T17:31:12.803Z,152010.59
2023-05-15T17:33:47.660Z,151989.81
2023-05-15T17:36:16.857Z,152005.38
2023-05-15T17:38:45.013Z,152031.31
2023-05-15T17:41:13.007Z,151998.91
2023-05-15T17:43:41.930Z,151998.91
2023-05-15T17:46:10.288Z,152006.69
2023-05-15T17:48:39.408Z,152053.44
2023-05-15T17:51:11.193Z,152069.00
2023-05-15T17:53:39.595Z,152048.22
2023-05-15T17:56:09.542Z,152045.63
2023-05-15T17:58:37.785Z,152055.94
2023-05-15T18:01:06.847Z,151293.94
2023-05-15T18:03:35.317Z,151314.63
2023-05-15T18:06:04.488Z,151293.94
2023-05-15T18:08:39.416Z,151273.31
2023-05-15T18:11:21.074Z,151299.13
2023-05-15T18:13:51.166Z,151270.75
2023-05-15T18:16:33.034Z,151292.66
2023-05-15T18:19:02.835Z,150895.28
2023-05-15T18:21:35.586Z,151219.06
2023-05-15T18:24:13.898Z,151573.88
2023-05-15T18:26:50.022Z,151548.03
2023-05-15T18:29:27.380Z,151507.94
2023-05-15T18:31:57.184Z,151866.53
2023-05-15T18:34:27.777Z,151871.81
2023-05-15T18:37:27.099Z,151805.69
2023-05-15T18:39:58.964Z,151867.91
2023-05-15T18:42:32.427Z,151889.97
2023-05-15T18:45:08.730Z,151835.53
2023-05-15T18:47:41.067Z,151830.31
2023-05-15T18:50:23.663Z,151812.16
2023-05-15T18:52:52.311Z,151812.16
2023-05-15T18:55:23.767Z,151778.47
2023-05-15T18:57:53.682Z,151812.16
2023-05-15T19:00:36.542Z,151810.88
2023-05-15T19:03:07.078Z,151809.56
2023-05-15T19:05:35.524Z,151765.50
2023-05-15T19:08:04.366Z,151768.09
2023-05-15T19:10:34.987Z,151762.91
2023-05-15T19:13:06.471Z,151744.75
2023-05-15T19:15:37.450Z,151716.28
2023-05-15T19:18:06.736Z,151674.81
2023-05-15T19:20:35.619Z,151734.44
2023-05-15T19:23:03.583Z,151731.84
2023-05-15T19:25:34.007Z,151705.91
2023-05-15T19:28:02.381Z,151737.03
2023-05-15T19:30:30.905Z,151625.53
2023-05-15T19:33:00.494Z,151635.88
2023-05-15T19:35:31.046Z,151621.66
2023-05-15T19:38:10.629Z,151581.47
2023-05-15T19:40:56.836Z,151528.34
2023-05-15T19:43:25.705Z,151597.00
2023-05-15T19:45:54.346Z,151626.84
2023-05-15T19:48:22.846Z,151578.88
2023-05-15T19:50:52.472Z,151602.22
2023-05-15T19:53:25.615Z,151576.31
2023-05-15T19:56:03.869Z,151529.66
2023-05-15T19:58:31.937Z,151565.94
2023-05-15T20:01:01.672Z,151519.34
2023-05-15T20:03:33.765Z,151533.53
2023-05-15T20:06:02.441Z,151485.63
2023-05-15T20:08:32.631Z,151475.25
2023-05-15T20:11:17.349Z,151413.13
2023-05-15T20:13:45.769Z,151431.25
2023-05-15T20:16:16.846Z,151470.09
2023-05-15T20:18:48.252Z,151446.81
2023-05-15T20:21:17.018Z,151424.78
2023-05-15T20:23:44.990Z,151446.81
2023-05-15T20:26:14.487Z,151441.63
2023-05-15T20:28:45.228Z,151392.44
2023-05-15T20:31:13.666Z,151344.53
2023-05-15T20:33:43.462Z,151352.31
2023-05-15T20:36:14.745Z,151338.06
2023-05-15T20:38:44.962Z,151296.66
2023-05-15T20:41:14.410Z,151343.25
2023-05-15T20:43:42.483Z,151340.66
2023-05-15T20:46:18.831Z,151332.88
2023-05-15T20:48:49.097Z,151323.81
2023-05-15T20:51:17.771Z,151323.81
2023-05-15T20:53:45.788Z,151338.06
2023-05-15T20:56:18.265Z,151325.13
2023-05-15T20:58:47.679Z,151304.41
2023-05-15T21:01:17.029Z,151281.13
2023-05-15T21:04:02.499Z,151270.75
2023-05-15T21:06:33.370Z,151296.66
2023-05-15T21:09:05.630Z,151268.19
2023-05-15T21:11:41.134Z,151250.03
2023-05-15T21:14:10.659Z,151224.19
2023-05-15T21:16:39.880Z,151243.63
2023-05-15T21:19:13.096Z,151305.69
2023-05-15T21:21:41.496Z,151244.91
2023-05-15T21:24:10.451Z,151263.00
2023-05-15T21:29:26.138Z,151216.41
2023-05-15T21:31:54.139Z,151213.84
2023-05-15T21:34:23.452Z,151198.28
2023-05-15T21:36:51.667Z,151185.41
2023-05-15T21:39:23.438Z,151195.72
2023-05-15T21:41:54.105Z,151173.75
2023-05-15T21:44:23.293Z,151173.75
2023-05-15T21:46:52.782Z,151198.28
2023-05-15T21:49:21.082Z,151152.97
2023-05-15T21:52:04.917Z,151224.19
2023-05-15T21:54:33.152Z,151165.97
2023-05-15T21:57:09.445Z,151199.59
2023-05-15T21:59:38.639Z,151197.00
2023-05-15T22:02:12.534Z,151169.84
2023-05-15T22:04:41.765Z,151215.13
2023-05-15T22:07:09.931Z,151219.00
2023-05-15T22:09:37.972Z,151209.94
2023-05-15T22:12:08.711Z,151169.84
2023-05-15T22:14:46.969Z,151175.03
2023-05-15T22:17:26.645Z,151173.75
2023-05-15T22:19:54.970Z,151184.09
2023-05-15T22:22:22.968Z,151177.63
2023-05-15T22:24:50.804Z,151211.25
2023-05-15T22:27:21.220Z,151230.66
2023-05-15T22:29:50.051Z,151211.25
2023-05-15T22:32:19.400Z,151186.69
2023-05-15T22:34:49.638Z,151128.44
2023-05-15T22:37:26.858Z,151142.63
2023-05-15T22:43:03.292Z,151125.84
2023-05-15T22:45:35.703Z,151162.09
2023-05-15T22:48:04.326Z,151176.34
2023-05-15T22:50:32.816Z,151204.78
2023-05-15T22:53:08.047Z,151173.75
2023-05-15T22:55:42.996Z,151172.44
2023-05-15T22:58:13.500Z,151131.03
2023-05-15T23:00:41.621Z,151129.72
2023-05-15T23:03:09.810Z,151136.19
2023-05-15T23:05:38.103Z,151123.25
2023-05-15T23:08:06.532Z,151115.47
2023-05-15T23:10:35.034Z,151071.53
2023-05-15T23:13:03.644Z,151044.34
2023-05-15T23:15:34.650Z,151045.63
2023-05-15T23:18:03.171Z,151000.41
2023-05-15T23:20:33.310Z,151021.09
2023-05-15T23:23:01.389Z,151010.75
2023-05-15T23:25:32.427Z,150983.56
2023-05-15T23:28:01.060Z,151024.97
2023-05-15T23:30:29.209Z,151014.63
2023-05-15T23:32:59.677Z,151013.34
2023-05-15T23:35:28.668Z,150996.50
2023-05-15T23:37:58.062Z,150973.22
2023-05-15T23:40:29.665Z,150970.69
2023-05-15T23:43:15.653Z,150893.13
2023-05-15T23:45:52.979Z,150886.66
2023-05-15T23:48:28.700Z,150880.19
2023-05-15T23:51:04.017Z,150890.53
2023-05-15T23:53:33.503Z,150906.06
2023-05-15T23:56:29.740Z,150908.63
2023-05-15T23:59:51.003Z,150908.63
